Webcam Webcam


Onweer radar blitzortung!


Regen radar rain snow radar


U vindt ons ook hier:

Het Weer Aktueel

European Weather Network

AWEKAS

Weather Underground


Het weer levert geen direct gevaar op.    Er zijn geen waarschuwingen afgegeven.

METAR rapporten vliegvelden

  
EHVK - Volkel, Noord Brabant, NL
Gewijzigd: 24-10-2017 11:25
Nevel, Bewolking
Nevel, Bewolking  
 Wind vanuit ZZW
Wind: ZZW 19 km/h
Temperatuur:  14°C
Dauwpunt:  14°C
Vochtigheid:  100%
Barometer:  1020 hPa
Samenvatting:  Nevel
Bewolking:  Bewolking
Zicht:  3 km
Bewolking:  Gedeeltelijk bewolkt 122 m
Bewolking 183 m
2017/10/24 09:25 EHVK 240925Z AUTO 20010KT 160V240 2700 R24R/P3000D BR SCT004 OVC006 14/14 Q1020 YLO 20010KT 7000 BR BKN004 OVC005 TEMPO 2000 BR DZ BKN002 OVC004
EHEH - Eindhoven, Noord Brabant, NL
Gewijzigd: 24-10-2017 11:25
Nevel, Bewolking
Nevel, Bewolking  
 Wind vanuit Z
Wind: Z 17 km/h
Temperatuur:  14°C
Dauwpunt:  14°C
Vochtigheid:  100%
Barometer:  1020 hPa
Samenvatting:  Nevel
Bewolking:  Bewolking
Zicht:  8 km
Bewolking:  Grotendeels bewolkt 152 m
Bewolking 183 m
2017/10/24 09:25 EHEH 240925Z AUTO 19009KT 8000 BR BKN005 OVC006 14/14 Q1020 YLO 20010KT 7000 SCT006 BKN008 OVC009 TEMPO 2000 DZ BKN003 OVC004
EHGR - Gilze Rijen, Noord Brabant, NL
Gewijzigd: 24-10-2017 11:25
Motregen, Bewolking
Motregen, Bewolking  
 Wind vanuit ZZW
Wind: ZZW 19 km/h
Temperatuur:  15°C
Dauwpunt:  14°C
Vochtigheid:  94%
Barometer:  1020 hPa
Samenvatting:  Motregen
Bewolking:  Bewolking
Zicht:  2 km
Bewolking:  Licht bewolkt 122 m
Gedeeltelijk bewolkt 152 m
Bewolking 183 m
2017/10/24 09:25 EHGR 240925Z AUTO 20010KT 160V250 2400 R28/P3000U DZ FEW004 SCT005 OVC006 15/14 Q1020 YLO 20009KT 5000 BR FEW005 BKN006 OVC008 TEMPO 2000 -DZ BKN004 OVC006
EHWO - Woensdrecht, Noord Brabant, NL
Gewijzigd: 24-10-2017 11:35
Nevel, Bewolking
Nevel, Bewolking  
 Wind vanuit ZZW
Wind: ZZW 15 km/h
Temperatuur:  15°C
Dauwpunt:  15°C
Vochtigheid:  100%
Barometer:  1019 hPa
Samenvatting:  Nevel
Bewolking:  Bewolking
Zicht:  4 km
Bewolking:  Grotendeels bewolkt 183 m
Grotendeels bewolkt 213 m
Bewolking 244 m
2017/10/24 09:35 EHWO 240935Z AUTO 21008KT 170V250 4200 BR BKN006 BKN007 OVC008 15/15 Q1019 YLO 22009KT 9000 FEW005 BKN006 OVC008 TEMPO 2000 DZRA SCT004 BKN005 OVC007
EHBK - Maastricht, Limburg, NL
Gewijzigd: 24-10-2017 11:25
Bewolking
Bewolking  
 Wind vanuit ZZW
Wind: ZZW 28 km/h
Temperatuur:  14°C
Dauwpunt:  13°C
Vochtigheid:  94%
Barometer:  1021 hPa
Bewolking:  Bewolking
Zicht:  10 km
Bewolking:  Gedeeltelijk bewolkt 305 m
Bewolking 488 m
2017/10/24 09:25 EHBK 240925Z AUTO 20015KT 170V230 9999 SCT010 OVC016 14/13 Q1021 NOSIG
EHDL - Arnhem/Deelen, Gelderland, NL
Gewijzigd: 24-10-2017 11:25
Nevel, Grotendeels bewolkt
Nevel, Grotendeels bewolkt  
 Wind vanuit Z
Wind: Z 15 km/h
Temperatuur:  14°C
Dauwpunt:  14°C
Vochtigheid:  100%
Barometer:  1019 hPa
Samenvatting:  Nevel
Bewolking:  Grotendeels bewolkt
Zicht:  6 km
Bewolking:  Gedeeltelijk bewolkt 152 m
Grotendeels bewolkt 183 m
Grotendeels bewolkt 213 m
2017/10/24 09:25 EHDL 240925Z AUTO 19008KT 150V230 6000 BR SCT005 BKN006 BKN007 14/14 Q1019 BLACKYLO
EHAM - Amsterdam/Schiphol, Noord Holland, NL
Gewijzigd: 24-10-2017 11:25
Lichte (mot)regen, Nevel, Grotendeels bewolkt
Lichte (mot)regen, Nevel, Grotendeels bewolkt  
 Wind vanuit Z
Wind: Z 20 km/h
Temperatuur:  15°C
Dauwpunt:  15°C
Vochtigheid:  100%
Barometer:  1018 hPa
Samenvatting:  Lichte , motregen, Nevel
Bewolking:  Grotendeels bewolkt
Zicht:  2 km
Bewolking:  Gedeeltelijk bewolkt 122 m
Grotendeels bewolkt 152 m
2017/10/24 09:25 EHAM 240925Z 19011KT 170V230 1800 -DZ BR SCT004 BKN005 15/15 Q1018 TEMPO SCT003 BKN004 BECMG FM1000 4000
EHGG - Groningen/Eelde, Groningen, NL
Gewijzigd: 24-10-2017 11:25
Nevel, Bewolking
Nevel, Bewolking  
 Wind vanuit ZZW
Wind: ZZW 22 km/h
Temperatuur:  14°C
Dauwpunt:  14°C
Vochtigheid:  100%
Barometer:  1017 hPa
Samenvatting:  Nevel
Bewolking:  Bewolking
Zicht:  2 km
Bewolking:  Licht bewolkt 122 m
Grotendeels bewolkt 152 m
Bewolking 183 m
2017/10/24 09:25 EHGG 240925Z AUTO 21012KT 2400 BR FEW004/// BKN005/// OVC006/// 14/14 Q1017 TEMPO BKN003
EHLW - Leeuwarden, Friesland, NL
Gewijzigd: 24-10-2017 11:33
Nevel, Bewolking
Nevel, Bewolking  
 Wind vanuit ZW
Wind: ZW 22 km/h
Temperatuur:  14°C
Dauwpunt:  14°C
Vochtigheid:  100%
Barometer:  1017 hPa
Samenvatting:  Nevel
Bewolking:  Bewolking
Zicht:  3 km
Bewolking:  Bewolking 30 m
2017/10/24 09:33 EHLW 240933Z AUTO 22012KT 170V240 2700 R23/3000U BR OVC001 14/14 Q1017 RED 21010KT 1500 BR OVC001 BECMG FEW002 BKN003
EHKD - De Kooy, Noord Holland, NL
Gewijzigd: 24-10-2017 11:25
Grotendeels bewolkt
Grotendeels bewolkt  
 Wind vanuit ZW
Wind: ZW 24 km/h
Temperatuur:  15°C
Dauwpunt:  14°C
Vochtigheid:  94%
Barometer:  1017 hPa
Bewolking:  Grotendeels bewolkt
Zicht:  10 km
Bewolking:  Licht bewolkt 244 m
Gedeeltelijk bewolkt 305 m
Grotendeels bewolkt 579 m
2017/10/24 09:25 EHKD 240925Z AUTO 22013KT 180V240 9999 FEW008 SCT010 BKN019 15/14 Q1017 GRN 21012KT 9999 SCT007 BKN011 BKN015 TEMPO 2500 DZ SCT003 BKN005
EHRD - Rotterdam, Zuid Holland, NL
Gewijzigd: 24-10-2017 11:25
Nevel, Bewolking
Nevel, Bewolking  
 Wind vanuit ZZW
Wind: ZZW 20 km/h
Temperatuur:  15°C
Dauwpunt:  15°C
Vochtigheid:  100%
Barometer:  1018 hPa
Samenvatting:  Nevel
Bewolking:  Bewolking
Zicht:  5 km
Bewolking:  Gedeeltelijk bewolkt 122 m
Bewolking 152 m
2017/10/24 09:25 EHRD 240925Z AUTO 21011KT 180V250 4600 BR SCT004 OVC005 15/15 Q1018 TEMPO 2000 DZ BKN003
EHFS - Vlissingen, Zeeland, NL
Gewijzigd: 24-10-2017 11:25
Nevel, Grotendeels bewolkt
Nevel, Grotendeels bewolkt  
 Wind vanuit ZW
Wind: ZW 26 km/h
Temperatuur:  16°C
Dauwpunt:  15°C
Vochtigheid:  94%
Barometer:  1019 hPa
Samenvatting:  Nevel
Bewolking:  Grotendeels bewolkt
Zicht:  5 km
Bewolking:  Gedeeltelijk bewolkt 183 m
Grotendeels bewolkt 213 m
Grotendeels bewolkt 244 m
2017/10/24 09:25 EHFS 240925Z AUTO 22014KT 4700 BR SCT006/// BKN007/// BKN008/// 16/15 Q1019

Script ontwikkeld door   Saratoga-weather.org Aangepast voor de template door  Weerstation Leuven

Apparatuur in gebruik:


Weerstation
Davis VP2

Weerprogramma
WeatherLink

Weercomputer
Sponsor

Webleverancier

Davis VP2

WeatherLink

Sponsor